sensor_id;sensor_type;location;lat;lon;timestamp;pressure;altitude;pressure_sealevel;temperature;humidity
57086;BME280;42964;42.910;23.792;2023-03-03T00:04:38;97902.28;;;3.36;100.00
57086;BME280;42964;42.910;23.792;2023-03-03T00:09:37;97891.81;;;3.58;99.82
57086;BME280;42964;42.910;23.792;2023-03-03T00:14:36;97889.56;;;3.39;100.00
57086;BME280;42964;42.910;23.792;2023-03-03T00:19:38;97805.69;;;2.77;100.00
57086;BME280;42964;42.910;23.792;2023-03-03T00:24:38;97880.16;;;3.11;100.00
57086;BME280;42964;42.910;23.792;2023-03-03T00:29:45;97880.63;;;3.26;100.00
57086;BME280;42964;42.910;23.792;2023-03-03T00:34:45;97866.06;;;3.25;100.00
57086;BME280;42964;42.910;23.792;2023-03-03T00:39:45;97866.41;;;3.37;100.00
57086;BME280;42964;42.910;23.792;2023-03-03T00:44:55;97855.00;;;3.26;100.00
57086;BME280;42964;42.910;23.792;2023-03-03T00:54:57;97837.72;;;3.51;100.00
57086;BME280;42964;42.910;23.792;2023-03-03T00:59:57;97754.34;;;3.05;100.00
57086;BME280;42964;42.910;23.792;2023-03-03T01:04:56;97831.63;;;3.47;100.00
57086;BME280;42964;42.910;23.792;2023-03-03T01:09:55;97832.13;;;3.64;99.94
57086;BME280;42964;42.910;23.792;2023-03-03T01:14:54;97824.44;;;3.65;99.46
57086;BME280;42964;42.910;23.792;2023-03-03T01:19:53;97779.69;;;3.56;98.90
57086;BME280;42964;42.910;23.792;2023-03-03T01:24:52;97823.66;;;3.68;98.86
57086;BME280;42964;42.910;23.792;2023-03-03T01:29:51;97812.81;;;3.78;98.91
57086;BME280;42964;42.910;23.792;2023-03-03T01:34:50;97759.06;;;3.51;98.60
57086;BME280;42964;42.910;23.792;2023-03-03T01:39:50;97808.25;;;3.68;99.17
57086;BME280;42964;42.910;23.792;2023-03-03T01:50:13;97816.81;;;3.37;99.76
57086;BME280;42964;42.910;23.792;2023-03-03T01:55:21;97805.50;;;3.60;99.93
57086;BME280;42964;42.910;23.792;2023-03-03T02:00:21;97803.38;;;3.46;99.54
57086;BME280;42964;42.910;23.792;2023-03-03T02:05:20;97808.66;;;3.52;99.87
57086;BME280;42964;42.910;23.792;2023-03-03T02:10:20;97816.59;;;3.29;100.00
57086;BME280;42964;42.910;23.792;2023-03-03T02:15:31;97800.69;;;3.11;100.00
57086;BME280;42964;42.910;23.792;2023-03-03T02:20:44;97802.66;;;3.19;100.00
57086;BME280;42964;42.910;23.792;2023-03-03T02:30:56;97799.47;;;3.28;100.00
57086;BME280;42964;42.910;23.792;2023-03-03T02:35:55;97775.25;;;3.18;100.00
57086;BME280;42964;42.910;23.792;2023-03-03T02:46:02;97782.94;;;3.17;100.00
57086;BME280;42964;42.910;23.792;2023-03-03T02:51:01;97795.22;;;3.29;100.00
57086;BME280;42964;42.910;23.792;2023-03-03T02:56:00;97797.41;;;3.15;100.00
57086;BME280;42964;42.910;23.792;2023-03-03T03:00:59;97793.84;;;3.11;100.00
57086;BME280;42964;42.910;23.792;2023-03-03T03:05:58;97795.09;;;3.24;100.00
57086;BME280;42964;42.910;23.792;2023-03-03T03:10:57;97785.91;;;3.32;100.00
57086;BME280;42964;42.910;23.792;2023-03-03T03:15:56;97788.00;;;3.15;100.00
57086;BME280;42964;42.910;23.792;2023-03-03T03:20:56;97785.63;;;3.23;100.00
57086;BME280;42964;42.910;23.792;2023-03-03T03:25:55;97786.09;;;3.38;100.00
57086;BME280;42964;42.910;23.792;2023-03-03T03:30:54;97779.78;;;3.27;100.00
57086;BME280;42964;42.910;23.792;2023-03-03T03:35:53;97781.56;;;3.30;100.00
57086;BME280;42964;42.910;23.792;2023-03-03T03:40:53;97775.50;;;3.26;100.00
57086;BME280;42964;42.910;23.792;2023-03-03T03:45:52;97774.44;;;3.19;100.00
57086;BME280;42964;42.910;23.792;2023-03-03T03:50:51;97774.56;;;3.24;100.00
57086;BME280;42964;42.910;23.792;2023-03-03T03:55:50;97740.41;;;2.95;100.00
57086;BME280;42964;42.910;23.792;2023-03-03T04:00:49;97759.84;;;3.17;100.00
57086;BME280;42964;42.910;23.792;2023-03-03T04:05:48;97755.44;;;3.13;100.00
57086;BME280;42964;42.910;23.792;2023-03-03T04:10:49;97688.59;;;2.75;100.00
57086;BME280;42964;42.910;23.792;2023-03-03T04:15:48;97748.56;;;3.12;100.00
57086;BME280;42964;42.910;23.792;2023-03-03T04:20:48;97752.53;;;3.00;100.00
57086;BME280;42964;42.910;23.792;2023-03-03T04:25:48;97757.03;;;3.08;100.00
57086;BME280;42964;42.910;23.792;2023-03-03T04:30:47;97750.59;;;3.23;100.00
57086;BME280;42964;42.910;23.792;2023-03-03T04:35:46;97740.31;;;3.22;100.00
57086;BME280;42964;42.910;23.792;2023-03-03T04:40:45;97746.75;;;3.38;100.00
57086;BME280;42964;42.910;23.792;2023-03-03T04:45:44;97741.50;;;3.33;100.00
57086;BME280;42964;42.910;23.792;2023-03-03T04:50:43;97645.09;;;2.78;100.00
57086;BME280;42964;42.910;23.792;2023-03-03T04:55:42;97697.72;;;3.27;100.00
57086;BME280;42964;42.910;23.792;2023-03-03T05:00:41;97745.69;;;3.63;100.00
57086;BME280;42964;42.910;23.792;2023-03-03T05:05:40;97691.13;;;3.37;100.00
57086;BME280;42964;42.910;23.792;2023-03-03T05:10:39;97738.28;;;3.74;100.00
57086;BME280;42964;42.910;23.792;2023-03-03T05:15:38;97750.53;;;3.85;99.76
57086;BME280;42964;42.910;23.792;2023-03-03T05:20:39;97749.22;;;3.68;99.71
57086;BME280;42964;42.910;23.792;2023-03-03T05:25:41;97746.47;;;3.60;99.53
57086;BME280;42964;42.910;23.792;2023-03-03T05:30:40;97746.53;;;3.63;100.00
57086;BME280;42964;42.910;23.792;2023-03-03T05:35:39;97743.22;;;3.66;99.82
57086;BME280;42964;42.910;23.792;2023-03-03T05:40:38;97758.50;;;3.63;99.80
57086;BME280;42964;42.910;23.792;2023-03-03T05:45:37;97748.22;;;3.61;100.00
57086;BME280;42964;42.910;23.792;2023-03-03T05:50:36;97753.47;;;3.66;99.95
57086;BME280;42964;42.910;23.792;2023-03-03T05:55:35;97758.88;;;3.77;100.00
57086;BME280;42964;42.910;23.792;2023-03-03T06:00:34;97761.50;;;3.78;100.00
57086;BME280;42964;42.910;23.792;2023-03-03T06:05:33;97751.91;;;3.73;100.00
57086;BME280;42964;42.910;23.792;2023-03-03T06:10:32;97758.94;;;3.80;100.00
57086;BME280;42964;42.910;23.792;2023-03-03T06:15:31;97759.34;;;3.95;99.81
57086;BME280;42964;42.910;23.792;2023-03-03T06:20:31;97768.75;;;3.95;100.00
57086;BME280;42964;42.910;23.792;2023-03-03T06:25:30;97766.00;;;3.89;99.81
57086;BME280;42964;42.910;23.792;2023-03-03T06:30:29;97764.59;;;4.00;99.71
57086;BME280;42964;42.910;23.792;2023-03-03T06:35:28;97760.41;;;4.03;99.72
57086;BME280;42964;42.910;23.792;2023-03-03T06:40:27;97759.47;;;4.00;99.57
57086;BME280;42964;42.910;23.792;2023-03-03T06:45:26;97771.84;;;4.16;100.00
57086;BME280;42964;42.910;23.792;2023-03-03T06:50:25;97752.06;;;4.12;98.71
57086;BME280;42964;42.910;23.792;2023-03-03T06:55:24;97765.00;;;4.17;99.40
57086;BME280;42964;42.910;23.792;2023-03-03T07:00:25;97770.38;;;4.26;99.82
57086;BME280;42964;42.910;23.792;2023-03-03T07:05:26;97627.59;;;3.60;99.74
57086;BME280;42964;42.910;23.792;2023-03-03T07:10:28;97767.38;;;4.44;99.03
57086;BME280;42964;42.910;23.792;2023-03-03T07:15:33;97765.06;;;4.56;98.98
57086;BME280;42964;42.910;23.792;2023-03-03T07:20:35;97761.06;;;4.67;99.28
57086;BME280;42964;42.910;23.792;2023-03-03T07:25:36;97756.84;;;4.71;99.85
57086;BME280;42964;42.910;23.792;2023-03-03T07:30:35;97764.75;;;4.79;97.26
57086;BME280;42964;42.910;23.792;2023-03-03T07:40:38;97747.59;;;4.79;97.94
57086;BME280;42964;42.910;23.792;2023-03-03T07:45:39;97692.31;;;4.59;98.17
57086;BME280;42964;42.910;23.792;2023-03-03T07:50:39;97726.59;;;4.97;96.86
57086;BME280;42964;42.910;23.792;2023-03-03T07:55:38;97737.19;;;5.12;96.39
57086;BME280;42964;42.910;23.792;2023-03-03T08:05:39;97730.09;;;5.45;96.96
57086;BME280;42964;42.910;23.792;2023-03-03T08:15:41;97730.72;;;5.33;92.89
57086;BME280;42964;42.910;23.792;2023-03-03T08:20:41;97721.47;;;5.43;95.49
57086;BME280;42964;42.910;23.792;2023-03-03T08:25:42;97704.19;;;5.36;94.22
57086;BME280;42964;42.910;23.792;2023-03-03T08:30:42;97716.44;;;5.49;94.43
57086;BME280;42964;42.910;23.792;2023-03-03T08:35:42;97700.34;;;5.61;93.93
57086;BME280;42964;42.910;23.792;2023-03-03T08:40:41;97704.84;;;5.72;95.31
57086;BME280;42964;42.910;23.792;2023-03-03T08:45:40;97696.53;;;5.89;93.54
57086;BME280;42964;42.910;23.792;2023-03-03T08:50:39;97679.38;;;5.89;95.35
57086;BME280;42964;42.910;23.792;2023-03-03T08:55:39;97707.41;;;6.26;96.57
57086;BME280;42964;42.910;23.792;2023-03-03T09:00:38;97691.09;;;6.25;94.70
57086;BME280;42964;42.910;23.792;2023-03-03T09:05:38;97698.22;;;6.43;95.72
57086;BME280;42964;42.910;23.792;2023-03-03T09:10:37;97699.88;;;6.39;93.72
57086;BME280;42964;42.910;23.792;2023-03-03T09:15:37;97696.56;;;6.47;95.56
57086;BME280;42964;42.910;23.792;2023-03-03T09:20:38;97665.81;;;6.60;91.91
57086;BME280;42964;42.910;23.792;2023-03-03T09:25:37;97667.88;;;6.88;93.70
57086;BME280;42964;42.910;23.792;2023-03-03T09:30:38;97682.84;;;7.15;89.68
57086;BME280;42964;42.910;23.792;2023-03-03T09:35:38;97603.56;;;7.03;91.13
57086;BME280;42964;42.910;23.792;2023-03-03T09:51:52;97627.56;;;7.83;85.30
57086;BME280;42964;42.910;23.792;2023-03-03T09:57:16;97677.88;;;8.33;83.16
57086;BME280;42964;42.910;23.792;2023-03-03T10:08:45;97661.50;;;8.30;79.39
57086;BME280;42964;42.910;23.792;2023-03-03T10:19:38;97664.88;;;8.22;78.69
57086;BME280;42964;42.910;23.792;2023-03-03T10:29:53;97653.88;;;8.60;82.70
57086;BME280;42964;42.910;23.792;2023-03-03T10:40:46;97649.91;;;9.46;82.41
57086;BME280;42964;42.910;23.792;2023-03-03T11:01:35;97616.25;;;10.00;73.61
57086;BME280;42964;42.910;23.792;2023-03-03T11:12:20;97610.06;;;10.58;72.58
57086;BME280;42964;42.910;23.792;2023-03-03T11:17:39;97601.44;;;10.51;73.59
57086;BME280;42964;42.910;23.792;2023-03-03T11:43:29;97535.03;;;9.95;76.12
57086;BME280;42964;42.910;23.792;2023-03-03T11:54:27;97556.59;;;10.22;68.22
57086;BME280;42964;42.910;23.792;2023-03-03T11:59:37;97561.84;;;9.82;73.52
57086;BME280;42964;42.910;23.792;2023-03-03T12:04:55;97561.00;;;9.75;72.93
57086;BME280;42964;42.910;23.792;2023-03-03T12:10:09;97554.06;;;9.78;73.18
57086;BME280;42964;42.910;23.792;2023-03-03T12:15:32;97323.69;;;8.37;76.44
57086;BME280;42964;42.910;23.792;2023-03-03T12:26:16;97560.91;;;10.23;77.71
57086;BME280;42964;42.910;23.792;2023-03-03T12:41:51;97570.41;;;10.25;72.43
57086;BME280;42964;42.910;23.792;2023-03-03T12:47:05;97570.44;;;10.13;69.55
57086;BME280;42964;42.910;23.792;2023-03-03T13:03:00;97560.00;;;10.30;76.05
57086;BME280;42964;42.910;23.792;2023-03-03T13:13:40;97552.19;;;10.45;74.80
57086;BME280;42964;42.910;23.792;2023-03-03T13:18:54;97550.41;;;10.59;73.80
57086;BME280;42964;42.910;23.792;2023-03-03T13:29:32;97549.41;;;10.83;70.13
57086;BME280;42964;42.910;23.792;2023-03-03T13:39:58;97545.16;;;10.66;72.57
57086;BME280;42964;42.910;23.792;2023-03-03T13:45:01;97552.16;;;10.53;70.67
57086;BME280;42964;42.910;23.792;2023-03-03T13:50:21;97531.56;;;10.02;69.94
57086;BME280;42964;42.910;23.792;2023-03-03T14:05:48;97518.50;;;8.44;78.29
57086;BME280;42964;42.910;23.792;2023-03-03T14:16:11;97547.53;;;7.94;81.65
57086;BME280;42964;42.910;23.792;2023-03-03T14:21:27;97549.88;;;7.58;83.60
57086;BME280;42964;42.910;23.792;2023-03-03T14:26:29;97558.25;;;7.31;85.12
57086;BME280;42964;42.910;23.792;2023-03-03T14:31:29;97561.69;;;7.32;86.14
57086;BME280;42964;42.910;23.792;2023-03-03T14:36:41;97559.81;;;7.14;86.35
57086;BME280;42964;42.910;23.792;2023-03-03T14:41:41;97554.56;;;7.06;88.13
57086;BME280;42964;42.910;23.792;2023-03-03T14:46:40;97562.19;;;6.95;86.97
57086;BME280;42964;42.910;23.792;2023-03-03T14:51:47;97537.78;;;6.63;88.04
57086;BME280;42964;42.910;23.792;2023-03-03T14:56:58;97550.69;;;6.61;89.48
57086;BME280;42964;42.910;23.792;2023-03-03T15:12:23;97563.81;;;6.14;90.93
57086;BME280;42964;42.910;23.792;2023-03-03T15:27:49;97569.75;;;6.08;91.75
57086;BME280;42964;42.910;23.792;2023-03-03T15:38:25;97560.28;;;6.06;92.13
57086;BME280;42964;42.910;23.792;2023-03-03T15:43:33;97556.97;;;6.14;91.78
57086;BME280;42964;42.910;23.792;2023-03-03T16:04:34;97598.69;;;5.90;91.68
57086;BME280;42964;42.910;23.792;2023-03-03T16:19:59;97608.56;;;6.19;90.58
57086;BME280;42964;42.910;23.792;2023-03-03T16:30:38;97627.91;;;5.92;89.58
57086;BME280;42964;42.910;23.792;2023-03-03T16:41:02;97634.84;;;5.96;90.80
57086;BME280;42964;42.910;23.792;2023-03-03T16:46:20;97648.44;;;5.88;89.87
57086;BME280;42964;42.910;23.792;2023-03-03T16:56:49;97651.94;;;5.91;89.99
57086;BME280;42964;42.910;23.792;2023-03-03T17:02:04;97655.16;;;5.78;91.13
57086;BME280;42964;42.910;23.792;2023-03-03T17:07:37;97667.41;;;5.93;90.78
57086;BME280;42964;42.910;23.792;2023-03-03T17:23:50;97628.88;;;5.46;91.37
57086;BME280;42964;42.910;23.792;2023-03-03T17:28:55;97681.91;;;5.86;90.88
57086;BME280;42964;42.910;23.792;2023-03-03T17:44:59;97688.44;;;6.19;90.74
57086;BME280;42964;42.910;23.792;2023-03-03T18:22:45;97712.63;;;6.29;90.00
57086;BME280;42964;42.910;23.792;2023-03-03T18:27:28;97712.75;;;6.36;89.47
57086;BME280;42964;42.910;23.792;2023-03-03T18:32:47;97712.09;;;6.50;89.83
57086;BME280;42964;42.910;23.792;2023-03-03T18:38:24;97672.41;;;6.38;89.05
57086;BME280;42964;42.910;23.792;2023-03-03T18:59:09;97738.38;;;6.87;87.88
57086;BME280;42964;42.910;23.792;2023-03-03T19:04:17;97738.38;;;6.87;86.83
57086;BME280;42964;42.910;23.792;2023-03-03T19:09:43;97741.88;;;6.92;86.91
57086;BME280;42964;42.910;23.792;2023-03-03T19:14:47;97743.56;;;6.90;86.94
57086;BME280;42964;42.910;23.792;2023-03-03T19:30:22;97743.97;;;6.58;87.19
57086;BME280;42964;42.910;23.792;2023-03-03T19:51:34;97708.19;;;6.20;88.49
57086;BME280;42964;42.910;23.792;2023-03-03T19:56:39;97761.09;;;6.53;89.59
57086;BME280;42964;42.910;23.792;2023-03-03T20:06:48;97759.09;;;6.35;89.97
57086;BME280;42964;42.910;23.792;2023-03-03T20:12:04;97767.56;;;6.26;90.50
57086;BME280;42964;42.910;23.792;2023-03-03T20:17:30;97755.25;;;6.08;91.81
57086;BME280;42964;42.910;23.792;2023-03-03T20:22:59;97763.84;;;6.09;92.67
57086;BME280;42964;42.910;23.792;2023-03-03T20:28:28;97755.28;;;6.10;92.88
57086;BME280;42964;42.910;23.792;2023-03-03T20:38:46;97747.56;;;6.11;92.39
57086;BME280;42964;42.910;23.792;2023-03-03T20:43:59;97738.22;;;6.16;92.72
57086;BME280;42964;42.910;23.792;2023-03-03T20:54:43;97737.47;;;6.24;92.21
57086;BME280;42964;42.910;23.792;2023-03-03T21:00:04;97725.56;;;6.32;91.57
57086;BME280;42964;42.910;23.792;2023-03-03T21:05:14;97710.91;;;6.29;90.55
57086;BME280;42964;42.910;23.792;2023-03-03T21:10:17;97720.56;;;6.43;90.68
57086;BME280;42964;42.910;23.792;2023-03-03T21:15:27;97693.97;;;6.45;90.73
57086;BME280;42964;42.910;23.792;2023-03-03T21:20:33;97721.47;;;6.45;91.51
57086;BME280;42964;42.910;23.792;2023-03-03T21:26:05;97716.97;;;6.31;91.04
57086;BME280;42964;42.910;23.792;2023-03-03T21:31:12;97659.75;;;5.97;91.15
57086;BME280;42964;42.910;23.792;2023-03-03T21:36:59;97721.97;;;6.22;91.62
57086;BME280;42964;42.910;23.792;2023-03-03T21:42:04;97725.44;;;6.26;91.97
57086;BME280;42964;42.910;23.792;2023-03-03T21:47:05;97733.28;;;6.32;92.27
57086;BME280;42964;42.910;23.792;2023-03-03T21:52:05;97702.31;;;6.30;92.29
57086;BME280;42964;42.910;23.792;2023-03-03T21:57:04;97739.28;;;6.31;91.94
57086;BME280;42964;42.910;23.792;2023-03-03T22:02:03;97740.09;;;6.27;92.18
57086;BME280;42964;42.910;23.792;2023-03-03T22:07:02;97737.63;;;6.34;91.96
57086;BME280;42964;42.910;23.792;2023-03-03T22:12:02;97730.00;;;6.40;91.50
57086;BME280;42964;42.910;23.792;2023-03-03T22:17:01;97723.16;;;6.44;91.02
57086;BME280;42964;42.910;23.792;2023-03-03T22:21:59;97722.31;;;6.47;90.34
57086;BME280;42964;42.910;23.792;2023-03-03T22:26:58;97719.69;;;6.42;89.88
57086;BME280;42964;42.910;23.792;2023-03-03T22:31:57;97723.84;;;6.32;90.61
57086;BME280;42964;42.910;23.792;2023-03-03T22:36:56;97710.72;;;6.17;90.25
57086;BME280;42964;42.910;23.792;2023-03-03T22:41:55;97737.25;;;6.10;91.41
57086;BME280;42964;42.910;23.792;2023-03-03T22:46:54;97742.53;;;6.19;91.04
57086;BME280;42964;42.910;23.792;2023-03-03T22:51:53;97746.06;;;6.24;90.81
57086;BME280;42964;42.910;23.792;2023-03-03T22:56:52;97739.22;;;6.26;91.94
57086;BME280;42964;42.910;23.792;2023-03-03T23:01:51;97747.84;;;6.28;91.83
57086;BME280;42964;42.910;23.792;2023-03-03T23:06:50;97731.63;;;6.35;91.23
57086;BME280;42964;42.910;23.792;2023-03-03T23:11:49;97736.91;;;6.43;91.29
57086;BME280;42964;42.910;23.792;2023-03-03T23:16:48;97729.28;;;6.49;91.76
57086;BME280;42964;42.910;23.792;2023-03-03T23:21:47;97733.53;;;6.49;91.06
57086;BME280;42964;42.910;23.792;2023-03-03T23:26:46;97736.19;;;6.52;91.34
57086;BME280;42964;42.910;23.792;2023-03-03T23:31:45;97742.25;;;6.57;91.18
57086;BME280;42964;42.910;23.792;2023-03-03T23:36:44;97744.88;;;6.60;90.38
57086;BME280;42964;42.910;23.792;2023-03-03T23:41:43;97739.72;;;6.60;91.22
57086;BME280;42964;42.910;23.792;2023-03-03T23:46:42;97746.63;;;6.63;90.64
57086;BME280;42964;42.910;23.792;2023-03-03T23:51:41;97743.09;;;6.56;90.11
57086;BME280;42964;42.910;23.792;2023-03-03T23:56:41;97694.56;;;6.27;90.35
